Time;durP1;ratioP1;P1;durP2;ratioP2;P2;SDS_P1;SDS_P2;PMS_P1;PMS_P2;Temp;Humidity;BMP_temperature;BMP_pressure;BME280_temperature;BME280_humidity;BME280_pressure;Samples;Min_cycle;Max_cycle;Signal;HPM_P1;HPM_P2
2022/11/06 00:00:18;;;;;;;8.50;4.05;;;;;;;17.49;47.98;102142.31;1755503;80;21033;-51
2022/11/06 00:02:45;;;;;;;8.93;3.50;;;;;;;17.50;48.23;102142.70;1741568;80;21094;-51
2022/11/06 00:07:58;;;;;;;6.33;4.08;;;;;;;17.53;48.22;102128.16;1758296;80;21645;-52
2022/11/06 00:10:24;;;;;;;10.98;3.17;;;;;;;17.52;47.95;102130.36;1755816;80;21084;-51
2022/11/06 00:12:51;;;;;;;5.62;2.85;;;;;;;17.52;48.01;102139.58;1755414;80;20993;-51
2022/11/06 00:15:19;;;;;;;12.45;4.40;;;;;;;17.52;47.98;102133.00;1759274;80;21046;-51
2022/11/06 00:17:49;;;;;;;6.55;3.17;;;;;;;17.51;48.60;102136.55;1754702;80;21030;-51
2022/11/06 00:20:17;;;;;;;6.37;3.27;;;;;;;17.52;48.67;102130.36;1753604;80;20998;-51
2022/11/06 00:22:44;;;;;;;11.70;3.45;;;;;;;17.52;48.00;102131.68;1764826;80;21506;-51
2022/11/06 00:25:12;;;;;;;13.15;3.45;;;;;;;17.52;48.42;102131.68;1754973;80;21447;-50
2022/11/06 00:27:42;;;;;;;7.10;3.40;;;;;;;17.52;48.39;102133.00;1767099;80;21533;-51
2022/11/06 00:30:10;;;;;;;7.42;3.58;;;;;;;17.50;48.16;102126.91;1759090;80;21031;-51
2022/11/06 00:32:38;;;;;;;6.33;3.72;;;;;;;17.52;48.25;102122.47;1775429;80;21057;-52
2022/11/06 00:35:06;;;;;;;4.67;3.33;;;;;;;17.50;48.43;102113.76;1763761;80;21542;-51
2022/11/06 00:37:35;;;;;;;8.33;2.85;;;;;;;17.49;48.60;102122.58;1752541;80;21066;-51
2022/11/06 00:40:02;;;;;;;9.88;3.60;;;;;;;17.49;48.58;102118.63;1763115;80;21011;-51
2022/11/06 00:42:29;;;;;;;9.90;3.67;;;;;;;17.49;48.95;102118.63;1774955;80;21604;-50
2022/11/06 00:44:57;;;;;;;9.25;3.30;;;;;;;17.50;49.15;102117.70;1751990;81;21608;-50
2022/11/06 00:47:24;;;;;;;10.20;3.35;;;;;;;17.51;49.07;102115.50;1748357;81;21010;-51
2022/11/06 00:49:51;;;;;;;8.18;3.67;;;;;;;17.52;48.43;102114.58;1764413;80;21093;-50
2022/11/06 00:52:18;;;;;;;13.90;3.58;;;;;;;17.54;48.59;102109.26;1764917;80;21533;-51
2022/11/06 00:54:45;;;;;;;8.53;3.60;;;;;;;17.54;49.28;102110.12;1761526;80;21011;-51
2022/11/06 00:57:12;;;;;;;9.38;3.70;;;;;;;17.54;50.57;102108.81;1749513;80;21003;-50
2022/11/06 00:59:40;;;;;;;14.53;4.28;;;;;;;17.54;51.15;102112.77;1752197;80;21534;-51
2022/11/06 01:02:07;;;;;;;8.60;4.28;;;;;;;17.53;51.95;102107.11;1772194;80;21014;-51
2022/11/06 01:04:35;;;;;;;6.90;3.90;;;;;;;17.54;52.45;102104.86;1752900;80;21065;-51
2022/11/06 01:07:02;;;;;;;6.90;3.80;;;;;;;17.54;52.50;102109.26;1757014;80;21935;-52
2022/11/06 01:09:29;;;;;;;7.58;3.75;;;;;;;17.53;52.53;102105.78;1766812;80;21003;-51
2022/11/06 01:11:58;;;;;;;7.03;3.80;;;;;;;17.51;52.54;102112.87;1762733;80;21546;-52
2022/11/06 01:14:27;;;;;;;7.92;4.30;;;;;;;17.50;52.58;102115.07;1752264;80;21510;-51
2022/11/06 01:16:54;;;;;;;8.98;3.58;;;;;;;17.48;52.69;102111.59;1749293;80;21503;-52
2022/11/06 01:19:21;;;;;;;8.65;3.83;;;;;;;17.46;52.97;102116.48;1761723;81;21042;-51
2022/11/06 01:21:54;;;;;;;8.28;3.83;;;;;;;17.46;52.96;102111.22;1768623;80;21482;-51
2022/11/06 01:24:24;;;;;;;7.58;3.85;;;;;;;17.44;52.80;102102.50;1768742;80;21074;-51
2022/11/06 01:26:52;;;;;;;11.40;4.12;;;;;;;17.43;52.93;102104.30;1705463;82;21263;-51
2022/11/06 01:29:19;;;;;;;9.38;3.83;;;;;;;17.42;52.75;102107.82;1719545;82;21043;-51
2022/11/06 01:31:48;;;;;;;7.50;3.52;;;;;;;17.41;53.03;102107.42;1711531;82;21005;-51
2022/11/06 01:34:15;;;;;;;8.73;3.65;;;;;;;17.40;52.94;102108.32;1708152;82;21099;-51
2022/11/06 01:36:42;;;;;;;4.95;3.27;;;;;;;17.41;52.59;102111.37;1723449;82;21122;-51
2022/11/06 01:39:12;;;;;;;8.50;3.87;;;;;;;17.40;52.51;102104.37;1716897;82;21065;-51
2022/11/06 01:41:43;;;;;;;7.30;3.65;;;;;;;17.42;52.53;102107.82;1709486;82;21034;-51
2022/11/06 01:44:36;;;;;;;7.37;4.03;;;;;;;17.41;52.33;102110.50;1708024;82;20995;-51
2022/11/06 01:47:04;;;;;;;;;;;;;;;17.42;52.49;102108.27;1696234;82;21012;-51
2022/11/06 01:49:36;;;;;;;8.83;3.83;;;;;;;17.42;52.44;102105.19;1713564;82;20458;-52
2022/11/06 01:52:07;;;;;;;8.83;3.80;;;;;;;17.42;52.45;102102.56;1711097;82;21042;-51
2022/11/06 01:54:37;;;;;;;11.38;4.67;;;;;;;17.41;52.37;102099.53;1694640;83;21036;-51
2022/11/06 01:57:04;;;;;;;9.98;3.92;;;;;;;17.37;52.43;102104.44;1672654;84;21030;-51
2022/11/06 01:59:35;;;;;;;8.18;3.87;;;;;;;17.35;52.59;102093.09;1690128;84;21043;-51
2022/11/06 02:02:01;;;;;;;8.40;3.05;;;;;;;17.34;52.57;102096.66;1690435;84;21121;-51
2022/11/06 02:04:38;;;;;;;12.85;4.00;;;;;;;17.29;52.36;102095.06;1671438;84;21094;-51
2022/11/06 02:07:04;;;;;;;13.22;4.40;;;;;;;17.26;52.61;102113.11;1681899;83;21522;-51
2022/11/06 02:09:33;;;;;;;11.48;4.70;;;;;;;17.25;52.88;102096.06;1694967;84;21545;-51
2022/11/06 02:12:14;;;;;;;12.00;4.05;;;;;;;17.25;53.55;102107.42;1695613;83;21582;-51
2022/11/06 02:15:05;;;;;;;8.97;3.80;;;;;;;17.25;53.22;102112.69;1692230;83;21069;-51
2022/11/06 02:17:58;;;;;;;7.87;3.47;;;;;;;17.24;53.57;102113.61;1678581;84;21046;-51
2022/11/06 02:20:36;;;;;;;13.78;4.45;;;;;;;17.23;53.15;102110.55;1688765;83;21054;-51
2022/11/06 02:23:35;;;;;;;7.47;4.30;;;;;;;17.19;53.17;102112.86;1683282;84;21594;-51
2022/11/06 02:26:10;;;;;;;7.58;4.10;;;;;;;17.20;53.13;102115.04;1682712;84;21565;-51
2022/11/06 02:28:42;;;;;;;8.53;4.10;;;;;;;17.20;53.20;102122.48;1690905;83;21082;-51
2022/11/06 02:31:16;;;;;;;12.13;4.15;;;;;;;17.20;53.28;102127.75;1651805;86;21082;-51
2022/11/06 02:34:00;;;;;;;10.90;4.30;;;;;;;17.19;53.14;102116.80;1625227;86;21527;-51
2022/11/06 02:36:32;;;;;;;6.62;3.60;;;;;;;17.20;53.13;102121.17;1645937;86;21595;-51
2022/11/06 02:39:01;;;;;;;9.58;4.50;;;;;;;17.20;53.05;102114.59;1704604;84;21010;-51
2022/11/06 02:41:36;;;;;;;10.88;4.40;;;;;;;17.18;53.25;102121.67;1636541;86;21028;-51
2022/11/06 02:44:06;;;;;;;8.38;4.72;;;;;;;17.17;53.63;102117.30;1608791;86;21028;-51
2022/11/06 02:46:39;;;;;;;10.32;4.35;;;;;;;17.17;53.43;102119.92;1681636;84;21058;-52
2022/11/06 02:49:17;;;;;;;8.13;4.10;;;;;;;17.16;53.34;102128.73;1651784;86;21068;-50
2022/11/06 02:51:48;;;;;;;9.73;4.22;;;;;;;17.16;53.45;102128.73;1616554;87;21119;-51
2022/11/06 02:54:15;;;;;;;8.00;4.40;;;;;;;17.15;53.53;102130.07;1567046;90;21063;-51
2022/11/06 02:56:44;;;;;;;8.73;4.37;;;;;;;17.13;53.62;102134.06;1568562;90;21078;-52
2022/11/06 02:59:24;;;;;;;7.12;4.40;;;;;;;17.13;53.93;102130.12;1566930;90;21078;-50
2022/11/06 03:01:58;;;;;;;9.88;4.67;;;;;;;17.12;54.05;102140.25;1572818;90;21086;-51
2022/11/06 03:05:03;;;;;;;11.68;5.60;;;;;;;17.12;54.33;102137.62;1560223;90;21697;-51
2022/11/06 03:07:37;;;;;;;6.92;4.47;;;;;;;17.13;54.53;102134.52;1528350;93;21096;-51
2022/11/06 03:10:06;;;;;;;9.60;5.22;;;;;;;17.14;54.71;102141.07;1511497;94;21069;-50
2022/11/06 03:12:58;;;;;;;13.20;5.67;;;;;;;17.11;54.50;102137.19;1518207;93;21065;-52
2022/11/06 03:15:43;;;;;;;11.68;5.30;;;;;;;17.10;54.47;102145.52;1511464;93;21239;-50
2022/11/06 03:18:36;;;;;;;10.38;4.67;;;;;;;17.10;54.56;102144.69;1506396;94;21577;-51
2022/11/06 03:21:11;;;;;;;8.00;4.58;;;;;;;17.08;54.72;102143.86;1482162;96;21108;-50
2022/11/06 03:23:47;;;;;;;14.55;5.42;;;;;;;17.07;55.03;102144.75;1470563;97;21618;-51
2022/11/06 03:26:19;;;;;;;11.55;5.42;;;;;;;17.06;55.15;102140.41;1395218;101;21167;-50
2022/11/06 03:28:56;;;;;;;10.58;5.12;;;;;;;17.06;55.17;102144.36;1362067;104;21190;-50
2022/11/06 03:31:33;;;;;;;12.63;5.30;;;;;;;17.05;55.42;102147.44;1345585;105;21103;-51
2022/11/06 03:34:07;;;;;;;9.95;5.50;;;;;;;17.04;55.65;102149.63;1304632;109;21225;-50
2022/11/06 03:36:40;;;;;;;9.73;4.37;;;;;;;17.04;55.86;102148.32;1311375;109;21652;-51
2022/11/06 03:39:11;;;;;;;9.03;4.65;;;;;;;17.06;55.49;102156.19;1302957;109;21671;-51
2022/11/06 03:41:47;;;;;;;11.50;5.10;;;;;;;17.05;55.30;102146.56;1305615;109;21141;-51
2022/11/06 03:44:17;;;;;;;9.33;4.47;;;;;;;17.08;55.55;102147.33;1306518;109;21168;-51
2022/11/06 03:46:49;;;;;;;10.08;4.60;;;;;;;17.12;55.04;102152.53;1309294;110;21153;-50
2022/11/06 03:49:24;;;;;;;9.78;5.10;;;;;;;17.13;54.95;102148.53;1282356;111;21187;-50
2022/11/06 03:51:58;;;;;;;9.05;4.30;;;;;;;17.17;55.30;102154.12;1355113;105;21735;-51
2022/11/06 03:54:28;;;;;;;7.78;4.12;;;;;;;17.20;55.19;102151.42;1366275;105;21159;-50
2022/11/06 03:57:12;;;;;;;10.63;4.22;;;;;;;17.20;54.37;102154.05;1372868;100;21089;-51
2022/11/06 03:59:45;;;;;;;10.88;4.75;;;;;;;17.23;54.12;102153.95;1376020;103;21175;-50
2022/11/06 04:02:12;;;;;;;6.97;4.33;;;;;;;17.25;54.21;102153.46;1374866;103;21180;-51
2022/11/06 04:04:50;;;;;;;8.63;4.30;;;;;;;17.28;54.00;102148.13;1391739;103;21697;-51
2022/11/06 04:07:21;;;;;;;8.40;4.05;;;;;;;17.29;53.66;102149.84;1311020;106;21192;-52
2022/11/06 04:15:26;;;;;;;14.10;5.17;;;;;;;17.36;53.19;102150.09;1317638;107;21732;-51
2022/11/06 04:17:53;;;;;;;9.65;4.00;;;;;;;17.39;53.46;102153.97;1316986;107;21160;-51
2022/11/06 04:23:19;;;;;;;9.95;4.80;;;;;;;17.42;53.17;102159.58;1346213;104;21610;-50
2022/11/06 04:26:34;;;;;;;6.40;4.22;;;;;;;17.41;52.71;102154.80;1355159;104;21270;-50
2022/11/06 04:29:23;;;;;;;8.38;4.67;;;;;;;17.39;52.58;102165.81;1391575;100;21216;-49
2022/11/06 04:32:13;;;;;;;7.75;5.05;;;;;;;17.38;52.49;102154.86;1395040;100;21242;-50
2022/11/06 04:35:05;;;;;;;10.45;4.30;;;;;;;17.38;52.27;102161.44;1402206;100;21217;-51
2022/11/06 04:37:51;;;;;;;8.75;4.25;;;;;;;17.38;52.15;102156.17;1401995;100;21752;-50
2022/11/06 04:40:55;;;;;;;8.45;4.12;;;;;;;17.38;52.40;102160.56;1409397;99;21186;-50
2022/11/06 04:43:53;;;;;;;8.70;4.80;;;;;;;17.39;52.20;102165.81;1378769;104;21186;-51
2022/11/06 04:46:24;;;;;;;8.45;3.92;;;;;;;17.39;51.59;102166.26;1367637;102;21616;-51
2022/11/06 04:48:51;;;;;;;8.28;3.98;;;;;;;17.40;51.05;102170.16;1347657;105;21687;-50
2022/11/06 04:51:21;;;;;;;9.75;3.83;;;;;;;17.40;50.54;102172.78;1347853;105;21172;-50
2022/11/06 04:53:48;;;;;;;12.25;3.85;;;;;;;17.40;50.49;102165.34;1349186;105;21317;-51
2022/11/06 04:56:23;;;;;;;7.03;4.12;;;;;;;17.37;51.11;102174.17;1366384;103;21173;-51
2022/11/06 04:58:50;;;;;;;7.78;4.17;;;;;;;17.34;51.44;102174.27;1376944;103;21644;-50
2022/11/06 05:01:17;;;;;;;7.97;4.00;;;;;;;17.34;51.95;102175.58;1375623;102;21694;-50
2022/11/06 05:03:43;;;;;;;10.10;3.75;;;;;;;17.32;51.70;102173.45;1375410;103;21129;-50
2022/11/06 05:06:10;;;;;;;8.65;4.40;;;;;;;17.31;51.31;102176.97;1378397;103;21346;-51
2022/11/06 05:08:37;;;;;;;6.40;3.52;;;;;;;17.29;51.18;102182.72;1379391;102;21207;-51
2022/11/06 05:11:04;;;;;;;9.10;4.50;;;;;;;17.29;50.86;102185.36;1380079;102;21168;-50
2022/11/06 05:13:31;;;;;;;9.98;4.17;;;;;;;17.31;50.93;102184.02;1416384;100;21690;-51
2022/11/06 05:15:59;;;;;;;10.93;4.92;;;;;;;17.31;51.21;102182.70;1398889;101;21158;-51
2022/11/06 05:18:27;;;;;;;10.55;4.30;;;;;;;17.32;52.43;102181.34;1398812;102;21158;-51
2022/11/06 05:23:39;;;;;;;9.83;4.25;;;;;;;17.32;50.48;102195.81;1398287;101;21113;-50
2022/11/06 05:26:06;;;;;;;8.38;4.00;;;;;;;17.30;49.80;102192.36;1397528;101;21145;-50
2022/11/06 05:28:33;;;;;;;10.72;3.80;;;;;;;17.31;49.47;102198.02;1396360;101;21125;-50
2022/11/06 05:30:59;;;;;;;13.32;4.25;;;;;;;17.32;49.69;102198.89;1395901;101;21116;-50
2022/11/06 05:33:26;;;;;;;6.60;3.70;;;;;;;17.31;49.66;102199.33;1397955;101;21661;-51
2022/11/06 05:35:54;;;;;;;6.03;4.00;;;;;;;17.31;49.54;102201.96;1395819;101;22082;-51
2022/11/06 05:38:20;;;;;;;9.00;3.85;;;;;;;17.29;49.90;102201.14;1395489;101;21162;-50
2022/11/06 05:40:47;;;;;;;9.43;4.28;;;;;;;17.28;49.89;102207.33;1427993;95;21677;-50
2022/11/06 05:43:13;;;;;;;7.08;3.52;;;;;;;17.26;50.08;102213.52;1480940;95;21118;-51
2022/11/06 05:45:40;;;;;;;9.48;3.58;;;;;;;17.27;50.24;102213.95;1542910;89;21086;-51
2022/11/06 05:48:07;;;;;;;6.62;3.52;;;;;;;17.26;50.38;102211.77;1597793;89;21637;-50
2022/11/06 05:50:34;;;;;;;6.97;3.58;;;;;;;17.27;50.41;102223.16;1618581;87;21089;-50
2022/11/06 05:53:03;;;;;;;6.37;3.95;;;;;;;17.26;50.14;102220.97;1626730;87;21056;-50
2022/11/06 05:55:30;;;;;;;6.25;3.22;;;;;;;17.25;50.10;102223.17;1659889;82;21106;-50
2022/11/06 05:57:56;;;;;;;9.20;4.03;;;;;;;17.26;50.11;102228.86;1696266;83;21063;-50
2022/11/06 06:00:24;;;;;;;7.92;3.83;;;;;;;17.27;50.56;102223.99;1752921;80;21035;-50
2022/11/06 06:02:50;;;;;;;7.58;3.75;;;;;;;17.28;51.10;102222.23;1760507;80;21002;-51
2022/11/06 06:05:17;;;;;;;7.87;3.72;;;;;;;17.29;50.75;102230.08;1754860;80;21046;-50
2022/11/06 06:07:44;;;;;;;6.80;3.37;;;;;;;17.28;50.44;102236.27;1769274;80;21095;-50
2022/11/06 06:10:10;;;;;;;11.20;4.05;;;;;;;17.28;50.46;102233.63;1756647;80;21502;-50
2022/11/06 06:12:38;;;;;;;9.80;3.95;;;;;;;17.27;49.97;102238.47;1753772;80;21038;-51
2022/11/06 06:15:08;;;;;;;5.87;3.27;;;;;;;17.25;50.15;102238.95;1755406;80;21010;-50
2022/11/06 06:17:36;;;;;;;7.50;3.42;;;;;;;17.26;50.44;102238.52;1730682;82;21037;-50
2022/11/06 06:20:04;;;;;;;11.57;4.05;;;;;;;17.26;50.81;102246.41;1728177;82;21069;-50
2022/11/06 06:22:31;;;;;;;7.58;3.80;;;;;;;17.27;50.86;102256.87;1735447;82;21177;-50
2022/11/06 06:24:58;;;;;;;12.03;4.62;;;;;;;17.28;50.86;102243.28;1724677;82;21096;-51
2022/11/06 06:27:26;;;;;;;10.23;4.83;;;;;;;17.28;51.08;102252.05;1730233;82;21054;-50
2022/11/06 06:29:54;;;;;;;8.33;3.83;;;;;;;17.29;51.13;102252.45;1730683;82;21570;-50
2022/11/06 06:32:21;;;;;;;7.30;4.12;;;;;;;17.30;51.19;102257.27;1732187;82;21053;-50
2022/11/06 06:34:48;;;;;;;7.83;5.05;;;;;;;17.28;50.88;102254.67;1729586;82;21086;-51
2022/11/06 06:37:15;;;;;;;10.43;4.00;;;;;;;17.28;51.09;102253.36;1732876;82;21010;-51
2022/11/06 06:39:41;;;;;;;7.42;3.87;;;;;;;17.29;51.38;102256.39;1735695;82;21546;-50
2022/11/06 06:42:08;;;;;;;10.70;4.00;;;;;;;17.29;51.32;102256.39;1733944;82;21018;-50
2022/11/06 06:44:34;;;;;;;10.50;3.70;;;;;;;17.31;51.34;102261.16;1737081;82;21102;-50
2022/11/06 06:47:01;;;;;;;10.48;3.80;;;;;;;17.33;50.63;102261.98;1736196;82;21043;-50
2022/11/06 06:49:28;;;;;;;8.43;3.42;;;;;;;17.34;50.92;102261.09;1737516;82;21007;-50
2022/11/06 06:51:55;;;;;;;11.80;3.90;;;;;;;17.35;50.79;102265.91;1730921;82;21045;-51
2022/11/06 06:54:21;;;;;;;5.58;3.20;;;;;;;17.34;50.53;102270.75;1725761;82;21074;-51
2022/11/06 06:56:48;;;;;;;10.43;3.62;;;;;;;17.31;50.67;102270.84;1732615;82;21069;-51
2022/11/06 06:59:14;;;;;;;8.48;3.20;;;;;;;17.30;50.64;102260.77;1737092;82;21034;-51
2022/11/06 07:01:41;;;;;;;7.28;3.17;;;;;;;17.29;51.20;102272.17;1728039;82;21086;-50
2022/11/06 07:04:09;;;;;;;7.45;3.67;;;;;;;17.29;51.09;102267.39;1730482;82;21030;-50
2022/11/06 07:06:36;;;;;;;9.43;3.85;;;;;;;17.27;51.04;102268.72;1731433;82;21043;-50
2022/11/06 07:09:03;;;;;;;5.75;3.25;;;;;;;17.26;51.42;102274.90;1731973;82;21049;-50
2022/11/06 07:11:30;;;;;;;10.38;3.90;;;;;;;17.27;51.88;102268.72;1732611;82;21077;-50
2022/11/06 07:13:57;;;;;;;7.40;3.35;;;;;;;17.29;51.96;102277.44;1739606;81;21026;-50
2022/11/06 07:16:26;;;;;;;13.48;3.85;;;;;;;17.29;52.03;102280.06;1745843;80;21018;-50
2022/11/06 07:18:53;;;;;;;8.18;3.55;;;;;;;17.29;51.98;102269.55;1753806;80;21057;-51
2022/11/06 07:21:20;;;;;;;10.05;3.90;;;;;;;17.30;51.89;102273.05;1748323;80;21037;-50
2022/11/06 07:23:46;;;;;;;6.30;3.02;;;;;;;17.28;51.73;102262.57;1755060;81;21578;-50
2022/11/06 07:26:14;;;;;;;7.78;3.40;;;;;;;17.27;51.74;102262.14;1761390;80;21560;-50
2022/11/06 07:28:41;;;;;;;8.70;3.50;;;;;;;17.28;51.87;102275.73;1755747;80;21549;-50
2022/11/06 07:31:11;;;;;;;8.88;3.58;;;;;;;17.28;51.96;102271.78;1766113;80;21612;-50
2022/11/06 07:33:38;;;;;;;8.65;4.50;;;;;;;17.31;51.31;102266.90;1751128;80;21069;-51
2022/11/06 07:36:11;;;;;;;10.20;3.80;;;;;;;17.31;51.42;102275.62;1755095;80;21007;-51
2022/11/06 07:38:39;;;;;;;13.13;4.10;;;;;;;17.32;51.34;102264.22;1750297;80;21570;-51
2022/11/06 07:41:08;;;;;;;6.80;3.37;;;;;;;17.33;51.19;102259.35;1762638;80;21078;-50
2022/11/06 07:43:35;;;;;;;7.25;3.55;;;;;;;17.34;50.60;102263.73;1757252;80;20995;-50
2022/11/06 07:46:05;;;;;;;7.25;3.85;;;;;;;17.33;50.26;102280.41;1770444;80;21030;-51
2022/11/06 07:48:32;;;;;;;10.78;4.15;;;;;;;17.32;50.46;102282.64;1751337;80;21006;-50
2022/11/06 07:51:06;;;;;;;9.98;4.03;;;;;;;17.30;50.72;102272.60;1752907;80;21075;-50
2022/11/06 07:53:34;;;;;;;8.63;3.60;;;;;;;17.31;50.52;102273.00;1697526;83;21132;-51
2022/11/06 07:56:02;;;;;;;6.60;3.52;;;;;;;17.32;50.07;102266.84;1694721;83;21499;-50
2022/11/06 07:58:29;;;;;;;6.55;3.90;;;;;;;17.33;49.83;102272.51;1691419;84;21018;-51
2022/11/06 08:00:57;;;;;;;6.95;3.10;;;;;;;17.34;49.80;102282.14;1686946;83;21077;-50
2022/11/06 08:03:25;;;;;;;11.30;3.75;;;;;;;17.34;49.70;102276.88;1675210;84;21057;-51
2022/11/06 08:05:52;;;;;;;6.97;3.17;;;;;;;17.34;50.21;102275.57;1700840;83;21086;-51
2022/11/06 08:08:19;;;;;;;6.25;3.20;;;;;;;17.34;49.57;102290.48;1687045;84;21089;-51
2022/11/06 08:10:46;;;;;;;7.47;3.40;;;;;;;17.34;49.41;102286.09;1683089;84;21126;-50
2022/11/06 08:13:15;;;;;;;9.60;3.67;;;;;;;17.33;49.23;102284.83;1676907;84;21086;-50
2022/11/06 08:15:43;;;;;;;11.68;3.83;;;;;;;17.31;49.98;102295.84;1681136;84;21073;-50
2022/11/06 08:18:10;;;;;;;7.20;3.77;;;;;;;17.31;49.66;102296.67;1690132;84;21046;-50
2022/11/06 08:20:38;;;;;;;7.42;3.67;;;;;;;17.29;49.70;102280.06;1688094;83;21032;-51
2022/11/06 08:23:07;;;;;;;7.47;3.42;;;;;;;17.30;49.73;102291.47;1691270;83;21089;-49
2022/11/06 08:25:33;;;;;;;7.22;3.45;;;;;;;17.31;49.75;102296.67;1686787;84;21109;-51
2022/11/06 08:28:01;;;;;;;8.45;4.28;;;;;;;17.31;49.48;102292.73;1683651;83;21036;-49
2022/11/06 08:30:29;;;;;;;8.05;3.70;;;;;;;17.31;48.94;102296.67;1691792;84;21074;-50
2022/11/06 08:33:00;;;;;;;6.15;3.62;;;;;;;17.30;49.14;102300.23;1694745;84;21078;-49
2022/11/06 08:35:26;;;;;;;7.97;3.27;;;;;;;17.29;49.83;102301.12;1634676;86;21067;-50
2022/11/06 08:37:54;;;;;;;6.25;3.37;;;;;;;17.28;49.59;102304.66;1614495;88;21093;-50
2022/11/06 08:40:22;;;;;;;7.62;3.37;;;;;;;17.29;49.55;102311.64;1642024;86;21074;-49
2022/11/06 08:42:48;;;;;;;9.10;3.92;;;;;;;17.27;49.84;102310.81;1618570;88;21078;-50
2022/11/06 08:45:15;;;;;;;8.85;3.72;;;;;;;17.27;50.12;102309.50;1643578;87;21030;-50
2022/11/06 08:47:43;;;;;;;6.70;3.35;;;;;;;17.28;49.79;102305.98;1644561;86;21038;-49
2022/11/06 08:50:10;;;;;;;8.80;3.55;;;;;;;17.29;49.45;102312.95;1659122;83;21061;-49
2022/11/06 08:52:36;;;;;;;6.78;3.55;;;;;;;17.30;48.90;102313.38;1687440;83;21127;-49
2022/11/06 08:55:04;;;;;;;5.95;3.00;;;;;;;17.30;48.99;102318.64;1691757;83;21104;-50
2022/11/06 08:57:32;;;;;;;7.08;3.40;;;;;;;17.30;48.76;102317.77;1682139;83;21124;-49
2022/11/06 08:59:58;;;;;;;6.97;3.35;;;;;;;17.29;48.58;102318.22;1684815;83;21217;-49
2022/11/06 09:02:25;;;;;;;8.25;3.87;;;;;;;17.29;48.63;102316.06;1696842;83;21568;-50
2022/11/06 09:04:53;;;;;;;8.25;3.50;;;;;;;17.28;48.46;102323.08;1697776;83;21136;-49
2022/11/06 09:07:20;;;;;;;6.97;3.10;;;;;;;17.29;47.78;102319.53;1704506;83;21600;-50
2022/11/06 09:09:47;;;;;;;8.13;3.37;;;;;;;17.29;47.69;102316.90;1695883;83;21085;-49
2022/11/06 09:12:14;;;;;;;8.55;3.20;;;;;;;17.29;47.75;102316.90;1688118;84;21054;-49
2022/11/06 09:14:40;;;;;;;10.60;3.22;;;;;;;17.28;47.49;102319.14;1694071;83;21018;-50
2022/11/06 09:17:07;;;;;;;7.80;4.00;;;;;;;17.30;47.76;102325.22;1683790;84;21054;-50
2022/11/06 09:19:34;;;;;;;7.62;2.85;;;;;;;17.31;47.63;102326.94;1686528;83;21025;-50
2022/11/06 09:22:01;;;;;;;8.55;3.52;;;;;;;17.32;47.42;102322.10;1697975;83;22341;-50
2022/11/06 09:24:28;;;;;;;8.03;3.35;;;;;;;17.34;47.94;102328.19;1678502;84;21093;-50
2022/11/06 09:26:55;;;;;;;9.50;4.08;;;;;;;17.36;47.98;102323.75;1700107;83;21600;-50
2022/11/06 09:29:22;;;;;;;11.03;3.50;;;;;;;17.36;47.50;102326.39;1683367;83;21133;-51
2022/11/06 09:31:50;;;;;;;7.58;3.27;;;;;;;17.38;47.75;102325.02;1719329;80;21064;-50
2022/11/06 09:34:17;;;;;;;7.87;3.50;;;;;;;17.37;47.37;102327.26;1755901;80;21054;-50
2022/11/06 09:36:44;;;;;;;8.53;4.05;;;;;;;17.36;47.22;102326.39;1755487;80;21070;-50
2022/11/06 09:39:10;;;;;;;9.13;3.87;;;;;;;17.36;47.76;102332.96;1749881;80;20990;-50
2022/11/06 09:41:50;;;;;;;5.35;3.08;;;;;;;17.37;47.22;102328.09;1746006;80;21607;-50
2022/11/06 09:44:52;;;;;;;7.75;3.35;;;;;;;17.38;47.27;102334.23;1641235;85;21105;-50
2022/11/06 09:47:21;;;;;;;;;;;;;;;17.39;47.72;102328.95;1590930;88;21628;-49
2022/11/06 09:49:51;;;;;;;9.83;3.70;;;;;;;17.41;48.40;102324.52;1576226;89;20110;-50
2022/11/06 09:52:44;;;;;;;7.28;3.22;;;;;;;17.40;47.42;102325.41;1573560;89;21109;-50
2022/11/06 09:55:37;;;;;;;9.73;3.47;;;;;;;17.39;47.06;102318.43;1519868;91;21196;-50
2022/11/06 09:58:17;;;;;;;8.00;3.45;;;;;;;17.38;47.16;102321.95;1476144;95;21207;-50
2022/11/06 10:00:44;;;;;;;8.90;4.08;;;;;;;17.38;47.34;102321.95;1469596;96;21120;-49
2022/11/06 10:03:17;;;;;;;9.25;3.60;;;;;;;17.36;47.28;102318.49;1464592;96;21151;-50
2022/11/06 10:05:44;;;;;;;9.03;3.92;;;;;;;17.36;47.28;102314.55;1473571;96;21120;-50
2022/11/06 10:08:18;;;;;;;9.80;3.65;;;;;;;17.36;47.10;102318.49;1466076;96;21666;-50
2022/11/06 10:11:08;;;;;;;8.48;3.62;;;;;;;17.38;47.09;102322.39;1471757;96;21325;-50
2022/11/06 10:14:22;;;;;;;8.13;3.77;;;;;;;17.35;47.14;102318.06;1470511;96;21136;-49
2022/11/06 10:17:14;;;;;;;8.35;4.05;;;;;;;17.35;47.36;102322.01;1461202;96;21184;-49
2022/11/06 10:20:05;;;;;;;8.35;3.67;;;;;;;17.35;47.68;102314.11;1427562;97;21712;-50
2022/11/06 10:22:41;;;;;;;14.43;3.83;;;;;;;17.38;47.95;102319.76;1371702;102;21638;-50
2022/11/06 10:25:40;;;;;;;9.30;4.55;;;;;;;17.40;47.97;102321.45;1372034;102;21222;-50
2022/11/06 10:28:43;;;;;;;8.55;4.12;;;;;;;17.41;47.85;102307.41;1365996;102;21198;-50
2022/11/06 10:31:31;;;;;;;7.58;3.92;;;;;;;17.42;47.36;102310.44;1383914;101;21207;-50
2022/11/06 10:34:10;;;;;;;11.48;4.42;;;;;;;17.41;47.37;102311.36;1383918;102;21125;-50
2022/11/06 10:37:01;;;;;;;6.22;3.95;;;;;;;17.40;47.45;102314.87;1354306;104;21198;-50
2022/11/06 10:39:31;;;;;;;9.25;3.75;;;;;;;17.39;47.72;102305.27;1359858;103;21621;-50
2022/11/06 10:42:29;;;;;;;8.60;3.87;;;;;;;17.37;47.60;102307.05;1350149;104;21157;-50
2022/11/06 10:45:03;;;;;;;7.85;4.03;;;;;;;17.38;47.99;102314.05;1378018;102;22319;-50
2022/11/06 10:47:41;;;;;;;8.33;3.98;;;;;;;17.36;48.34;102305.33;1372922;104;21215;-50
2022/11/06 10:50:14;;;;;;;13.35;4.60;;;;;;;17.36;48.15;102311.05;1405262;101;21148;-50
2022/11/06 10:53:19;;;;;;;8.73;4.15;;;;;;;17.36;48.11;102313.23;1419370;99;21170;-49
2022/11/06 10:56:31;;;;;;;11.48;4.83;;;;;;;17.36;48.13;102305.33;1394700;101;21213;-50
2022/11/06 10:58:57;;;;;;;9.23;4.05;;;;;;;17.39;48.60;102307.91;1464920;96;21599;-49
2022/11/06 11:01:24;;;;;;;8.08;4.15;;;;;;;17.40;48.22;102307.42;1458043;96;21149;-49
2022/11/06 11:03:51;;;;;;;7.85;4.42;;;;;;;17.41;48.12;102307.41;1479324;94;21195;-49
2022/11/06 11:06:18;;;;;;;10.30;5.25;;;;;;;17.40;48.42;102304.35;1483236;94;21120;-49
2022/11/06 11:08:50;;;;;;;7.55;3.67;;;;;;;17.40;48.55;102306.98;1486348;95;21133;-49
2022/11/06 11:11:23;;;;;;;10.68;4.20;;;;;;;17.42;48.30;102307.81;1462131;97;21193;-50
2022/11/06 11:14:04;;;;;;;10.93;4.28;;;;;;;17.41;48.50;102299.97;1474104;95;21073;-49
2022/11/06 11:16:34;;;;;;;;;;;;;;;17.39;48.54;102303.95;1471218;94;21085;-50
2022/11/06 11:19:35;;;;;;;12.43;4.53;;;;;;;17.36;48.71;102313.23;1492749;94;20168;-50
2022/11/06 11:22:20;;;;;;;13.75;4.78;;;;;;;17.37;49.12;102307.52;1531619;92;21155;-50
2022/11/06 11:25:06;;;;;;;10.82;4.78;;;;;;;17.39;49.67;102307.03;1509153;92;21123;-50
2022/11/06 11:27:43;;;;;;;12.10;3.95;;;;;;;17.42;49.03;102306.49;1535626;92;21149;-51
2022/11/06 11:30:22;;;;;;;7.67;4.42;;;;;;;17.44;49.14;102299.42;1535171;91;21158;-50
2022/11/06 11:32:49;;;;;;;15.32;4.90;;;;;;;17.45;49.28;102299.85;1549073;91;22015;-50
2022/11/06 11:35:20;;;;;;;13.13;4.87;;;;;;;17.45;49.20;102290.64;1574874;90;21055;-50
2022/11/06 11:37:46;;;;;;;7.87;4.30;;;;;;;17.44;49.15;102297.23;1565447;90;21588;-50
2022/11/06 11:40:36;;;;;;;9.33;4.35;;;;;;;17.42;48.82;102293.34;1561954;90;21093;-50
2022/11/06 11:43:24;;;;;;;8.63;4.90;;;;;;;17.40;49.09;102299.09;1573872;90;21094;-50
2022/11/06 11:46:03;;;;;;;8.63;4.72;;;;;;;17.39;49.36;102300.02;1614368;88;21147;-50
2022/11/06 11:48:51;;;;;;;7.72;5.22;;;;;;;17.38;49.56;102303.53;1611200;88;21059;-51
2022/11/06 11:51:37;;;;;;;13.68;5.22;;;;;;;17.37;50.03;102307.05;1605612;88;21122;-50
2022/11/06 11:54:17;;;;;;;9.30;4.80;;;;;;;17.37;50.13;102298.31;1608694;88;21646;-51
2022/11/06 11:57:08;;;;;;;8.28;4.60;;;;;;;17.36;50.27;102300.07;1610839;88;21577;-50
2022/11/06 11:59:47;;;;;;;9.70;5.03;;;;;;;17.36;50.44;102293.49;1595052;87;21096;-50